sensor_id;sensor_type;location;lat;lon;timestamp;P1;durP1;ratioP1;P2;durP2;ratioP2
19205;SDS011;59358;52.134;5.596;2024-03-07T00:00:01;151.98;;;55.70;;
19205;SDS011;59358;52.134;5.596;2024-03-07T00:02:29;161.68;;;56.40;;
19205;SDS011;59358;52.134;5.596;2024-03-07T00:04:55;134.35;;;52.30;;
19205;SDS011;59358;52.134;5.596;2024-03-07T00:07:22;153.75;;;56.78;;
19205;SDS011;59358;52.134;5.596;2024-03-07T00:09:48;150.32;;;57.75;;
19205;SDS011;59358;52.134;5.596;2024-03-07T00:12:16;154.93;;;57.40;;
19205;SDS011;59358;52.134;5.596;2024-03-07T00:14:44;160.40;;;57.42;;
19205;SDS011;59358;52.134;5.596;2024-03-07T00:17:11;165.98;;;58.60;;
19205;SDS011;59358;52.134;5.596;2024-03-07T00:19:38;155.90;;;57.53;;
19205;SDS011;59358;52.134;5.596;2024-03-07T00:22:05;169.00;;;59.88;;
19205;SDS011;59358;52.134;5.596;2024-03-07T00:24:32;185.68;;;62.60;;
19205;SDS011;59358;52.134;5.596;2024-03-07T00:26:58;168.57;;;61.17;;
19205;SDS011;59358;52.134;5.596;2024-03-07T00:29:25;183.50;;;64.10;;
19205;SDS011;59358;52.134;5.596;2024-03-07T00:31:54;169.40;;;60.00;;
19205;SDS011;59358;52.134;5.596;2024-03-07T00:34:22;176.88;;;61.25;;
19205;SDS011;59358;52.134;5.596;2024-03-07T00:36:48;170.38;;;63.17;;
19205;SDS011;59358;52.134;5.596;2024-03-07T00:39:16;179.00;;;60.80;;
19205;SDS011;59358;52.134;5.596;2024-03-07T00:41:44;179.38;;;62.38;;
19205;SDS011;59358;52.134;5.596;2024-03-07T00:44:11;175.57;;;63.53;;
19205;SDS011;59358;52.134;5.596;2024-03-07T00:46:38;176.73;;;60.63;;
19205;SDS011;59358;52.134;5.596;2024-03-07T00:49:06;188.90;;;64.47;;
19205;SDS011;59358;52.134;5.596;2024-03-07T00:51:33;177.85;;;60.88;;
19205;SDS011;59358;52.134;5.596;2024-03-07T00:54:00;181.75;;;63.67;;
19205;SDS011;59358;52.134;5.596;2024-03-07T00:56:27;189.57;;;62.70;;
19205;SDS011;59358;52.134;5.596;2024-03-07T00:58:54;191.60;;;67.15;;
19205;SDS011;59358;52.134;5.596;2024-03-07T01:01:21;191.48;;;65.75;;
19205;SDS011;59358;52.134;5.596;2024-03-07T01:03:48;192.07;;;66.95;;
19205;SDS011;59358;52.134;5.596;2024-03-07T01:06:16;192.02;;;68.75;;
19205;SDS011;59358;52.134;5.596;2024-03-07T01:08:44;200.25;;;72.63;;
19205;SDS011;59358;52.134;5.596;2024-03-07T01:11:11;188.50;;;69.95;;
19205;SDS011;59358;52.134;5.596;2024-03-07T01:13:38;203.85;;;72.90;;
19205;SDS011;59358;52.134;5.596;2024-03-07T01:16:05;211.10;;;76.70;;
19205;SDS011;59358;52.134;5.596;2024-03-07T01:18:32;209.85;;;73.03;;
19205;SDS011;59358;52.134;5.596;2024-03-07T01:20:59;196.45;;;70.72;;
19205;SDS011;59358;52.134;5.596;2024-03-07T01:23:28;198.93;;;69.78;;
19205;SDS011;59358;52.134;5.596;2024-03-07T01:25:55;214.07;;;70.68;;
19205;SDS011;59358;52.134;5.596;2024-03-07T01:28:22;210.98;;;68.95;;
19205;SDS011;59358;52.134;5.596;2024-03-07T01:30:49;211.05;;;69.38;;
19205;SDS011;59358;52.134;5.596;2024-03-07T01:33:16;208.65;;;69.53;;
19205;SDS011;59358;52.134;5.596;2024-03-07T01:35:42;205.27;;;67.80;;
19205;SDS011;59358;52.134;5.596;2024-03-07T01:38:09;211.27;;;66.57;;
19205;SDS011;59358;52.134;5.596;2024-03-07T01:40:40;206.18;;;67.53;;
19205;SDS011;59358;52.134;5.596;2024-03-07T01:43:07;204.27;;;67.28;;
19205;SDS011;59358;52.134;5.596;2024-03-07T01:45:35;205.10;;;64.97;;
19205;SDS011;59358;52.134;5.596;2024-03-07T01:48:02;204.85;;;67.35;;
19205;SDS011;59358;52.134;5.596;2024-03-07T01:50:31;207.40;;;71.18;;
19205;SDS011;59358;52.134;5.596;2024-03-07T01:52:57;224.48;;;72.53;;
19205;SDS011;59358;52.134;5.596;2024-03-07T01:55:26;214.77;;;69.75;;
19205;SDS011;59358;52.134;5.596;2024-03-07T01:57:55;211.98;;;69.07;;
19205;SDS011;59358;52.134;5.596;2024-03-07T02:00:25;228.48;;;67.75;;
19205;SDS011;59358;52.134;5.596;2024-03-07T02:02:53;224.10;;;72.50;;
19205;SDS011;59358;52.134;5.596;2024-03-07T02:05:20;220.50;;;70.20;;
19205;SDS011;59358;52.134;5.596;2024-03-07T02:07:47;233.18;;;72.63;;
19205;SDS011;59358;52.134;5.596;2024-03-07T02:10:14;220.38;;;70.15;;
19205;SDS011;59358;52.134;5.596;2024-03-07T02:12:42;227.55;;;71.13;;
19205;SDS011;59358;52.134;5.596;2024-03-07T02:15:11;232.73;;;70.53;;
19205;SDS011;59358;52.134;5.596;2024-03-07T02:17:38;243.35;;;72.13;;
19205;SDS011;59358;52.134;5.596;2024-03-07T02:20:07;227.82;;;74.45;;
19205;SDS011;59358;52.134;5.596;2024-03-07T02:22:37;226.52;;;73.32;;
19205;SDS011;59358;52.134;5.596;2024-03-07T02:25:04;235.95;;;71.15;;
19205;SDS011;59358;52.134;5.596;2024-03-07T02:27:31;223.25;;;73.88;;
19205;SDS011;59358;52.134;5.596;2024-03-07T02:29:58;238.30;;;73.75;;
19205;SDS011;59358;52.134;5.596;2024-03-07T02:32:27;242.25;;;76.15;;
19205;SDS011;59358;52.134;5.596;2024-03-07T02:34:53;233.38;;;71.82;;
19205;SDS011;59358;52.134;5.596;2024-03-07T02:37:20;221.98;;;73.30;;
19205;SDS011;59358;52.134;5.596;2024-03-07T02:39:48;236.23;;;72.43;;
19205;SDS011;59358;52.134;5.596;2024-03-07T02:42:15;230.80;;;70.72;;
19205;SDS011;59358;52.134;5.596;2024-03-07T02:44:42;233.13;;;71.63;;
19205;SDS011;59358;52.134;5.596;2024-03-07T02:47:09;220.65;;;67.72;;
19205;SDS011;59358;52.134;5.596;2024-03-07T02:49:36;241.40;;;75.03;;
19205;SDS011;59358;52.134;5.596;2024-03-07T02:52:04;220.77;;;72.97;;
19205;SDS011;59358;52.134;5.596;2024-03-07T02:54:32;235.88;;;75.45;;
19205;SDS011;59358;52.134;5.596;2024-03-07T02:57:00;228.93;;;74.85;;
19205;SDS011;59358;52.134;5.596;2024-03-07T02:59:27;235.10;;;72.88;;
19205;SDS011;59358;52.134;5.596;2024-03-07T03:01:55;231.77;;;72.25;;
19205;SDS011;59358;52.134;5.596;2024-03-07T03:04:21;238.13;;;71.05;;
19205;SDS011;59358;52.134;5.596;2024-03-07T03:06:48;233.27;;;72.82;;
19205;SDS011;59358;52.134;5.596;2024-03-07T03:09:15;224.27;;;71.25;;
19205;SDS011;59358;52.134;5.596;2024-03-07T03:11:43;228.75;;;71.07;;
19205;SDS011;59358;52.134;5.596;2024-03-07T03:14:11;238.45;;;70.57;;
19205;SDS011;59358;52.134;5.596;2024-03-07T03:16:41;239.50;;;73.10;;
19205;SDS011;59358;52.134;5.596;2024-03-07T03:19:08;250.73;;;73.85;;
19205;SDS011;59358;52.134;5.596;2024-03-07T03:21:35;215.55;;;68.93;;
19205;SDS011;59358;52.134;5.596;2024-03-07T03:24:03;228.18;;;69.65;;
19205;SDS011;59358;52.134;5.596;2024-03-07T03:26:30;235.85;;;71.13;;
19205;SDS011;59358;52.134;5.596;2024-03-07T03:28:57;223.43;;;69.63;;
19205;SDS011;59358;52.134;5.596;2024-03-07T03:31:25;228.57;;;69.38;;
19205;SDS011;59358;52.134;5.596;2024-03-07T03:33:52;213.60;;;66.57;;
19205;SDS011;59358;52.134;5.596;2024-03-07T03:36:18;240.25;;;71.13;;
19205;SDS011;59358;52.134;5.596;2024-03-07T03:38:45;240.23;;;70.55;;
19205;SDS011;59358;52.134;5.596;2024-03-07T03:41:14;222.95;;;70.68;;
19205;SDS011;59358;52.134;5.596;2024-03-07T03:43:41;221.55;;;69.80;;
19205;SDS011;59358;52.134;5.596;2024-03-07T03:46:09;237.45;;;72.82;;
19205;SDS011;59358;52.134;5.596;2024-03-07T03:48:37;234.15;;;70.85;;
19205;SDS011;59358;52.134;5.596;2024-03-07T03:51:06;245.77;;;73.38;;
19205;SDS011;59358;52.134;5.596;2024-03-07T03:53:33;233.52;;;71.18;;
19205;SDS011;59358;52.134;5.596;2024-03-07T03:56:00;244.60;;;70.25;;
19205;SDS011;59358;52.134;5.596;2024-03-07T03:58:29;231.63;;;71.82;;
19205;SDS011;59358;52.134;5.596;2024-03-07T04:00:56;240.50;;;71.72;;
19205;SDS011;59358;52.134;5.596;2024-03-07T04:03:23;242.57;;;69.65;;
19205;SDS011;59358;52.134;5.596;2024-03-07T04:05:52;237.63;;;70.50;;
19205;SDS011;59358;52.134;5.596;2024-03-07T04:08:20;242.15;;;74.75;;
19205;SDS011;59358;52.134;5.596;2024-03-07T04:10:47;242.48;;;72.13;;
19205;SDS011;59358;52.134;5.596;2024-03-07T04:13:13;237.88;;;70.03;;
19205;SDS011;59358;52.134;5.596;2024-03-07T04:15:40;246.27;;;74.03;;
19205;SDS011;59358;52.134;5.596;2024-03-07T04:18:07;251.20;;;75.78;;
19205;SDS011;59358;52.134;5.596;2024-03-07T04:20:33;240.27;;;73.88;;
19205;SDS011;59358;52.134;5.596;2024-03-07T04:23:02;234.68;;;71.80;;
19205;SDS011;59358;52.134;5.596;2024-03-07T04:25:29;257.60;;;74.10;;
19205;SDS011;59358;52.134;5.596;2024-03-07T04:27:56;233.63;;;72.57;;
19205;SDS011;59358;52.134;5.596;2024-03-07T04:30:23;228.05;;;72.25;;
19205;SDS011;59358;52.134;5.596;2024-03-07T04:32:50;239.48;;;72.57;;
19205;SDS011;59358;52.134;5.596;2024-03-07T04:35:17;244.07;;;72.50;;
19205;SDS011;59358;52.134;5.596;2024-03-07T04:37:44;229.82;;;72.38;;
19205;SDS011;59358;52.134;5.596;2024-03-07T04:40:12;245.25;;;73.65;;
19205;SDS011;59358;52.134;5.596;2024-03-07T04:42:42;241.10;;;72.70;;
19205;SDS011;59358;52.134;5.596;2024-03-07T04:45:09;238.00;;;73.38;;
19205;SDS011;59358;52.134;5.596;2024-03-07T04:47:38;219.90;;;70.82;;
19205;SDS011;59358;52.134;5.596;2024-03-07T04:50:05;242.80;;;77.05;;
19205;SDS011;59358;52.134;5.596;2024-03-07T04:52:33;253.52;;;81.90;;
19205;SDS011;59358;52.134;5.596;2024-03-07T04:55:00;245.35;;;72.28;;
19205;SDS011;59358;52.134;5.596;2024-03-07T04:57:28;242.13;;;73.40;;
19205;SDS011;59358;52.134;5.596;2024-03-07T04:59:55;237.68;;;74.18;;
19205;SDS011;59358;52.134;5.596;2024-03-07T05:02:22;235.40;;;73.20;;
19205;SDS011;59358;52.134;5.596;2024-03-07T05:04:49;253.18;;;74.22;;
19205;SDS011;59358;52.134;5.596;2024-03-07T05:07:17;226.27;;;72.85;;
19205;SDS011;59358;52.134;5.596;2024-03-07T05:09:44;242.25;;;73.80;;
19205;SDS011;59358;52.134;5.596;2024-03-07T05:12:10;251.65;;;74.28;;
19205;SDS011;59358;52.134;5.596;2024-03-07T05:14:39;244.65;;;73.22;;
19205;SDS011;59358;52.134;5.596;2024-03-07T05:17:06;259.27;;;76.40;;
19205;SDS011;59358;52.134;5.596;2024-03-07T05:19:34;259.92;;;79.35;;
19205;SDS011;59358;52.134;5.596;2024-03-07T05:22:01;227.35;;;74.97;;
19205;SDS011;59358;52.134;5.596;2024-03-07T05:24:30;235.00;;;75.63;;
19205;SDS011;59358;52.134;5.596;2024-03-07T05:26:57;240.80;;;75.35;;
19205;SDS011;59358;52.134;5.596;2024-03-07T05:29:24;236.82;;;72.65;;
19205;SDS011;59358;52.134;5.596;2024-03-07T05:31:53;243.98;;;75.28;;
19205;SDS011;59358;52.134;5.596;2024-03-07T05:34:20;237.82;;;75.95;;
19205;SDS011;59358;52.134;5.596;2024-03-07T05:36:48;246.18;;;76.50;;
19205;SDS011;59358;52.134;5.596;2024-03-07T05:39:16;235.27;;;73.85;;
19205;SDS011;59358;52.134;5.596;2024-03-07T05:41:44;251.13;;;77.55;;
19205;SDS011;59358;52.134;5.596;2024-03-07T05:44:11;227.77;;;74.28;;
19205;SDS011;59358;52.134;5.596;2024-03-07T05:46:38;235.43;;;74.78;;
19205;SDS011;59358;52.134;5.596;2024-03-07T05:49:12;232.13;;;74.63;;
19205;SDS011;59358;52.134;5.596;2024-03-07T05:51:40;242.18;;;76.93;;
19205;SDS011;59358;52.134;5.596;2024-03-07T05:54:09;235.18;;;74.35;;
19205;SDS011;59358;52.134;5.596;2024-03-07T05:56:38;231.77;;;75.07;;
19205;SDS011;59358;52.134;5.596;2024-03-07T05:59:05;240.52;;;74.88;;
19205;SDS011;59358;52.134;5.596;2024-03-07T06:01:32;234.48;;;75.43;;
19205;SDS011;59358;52.134;5.596;2024-03-07T06:03:59;237.43;;;75.18;;
19205;SDS011;59358;52.134;5.596;2024-03-07T06:06:28;238.75;;;75.03;;
19205;SDS011;59358;52.134;5.596;2024-03-07T06:08:56;218.95;;;72.20;;
19205;SDS011;59358;52.134;5.596;2024-03-07T06:11:23;242.30;;;76.25;;
19205;SDS011;59358;52.134;5.596;2024-03-07T06:13:50;242.85;;;76.20;;
19205;SDS011;59358;52.134;5.596;2024-03-07T06:16:17;231.00;;;74.95;;
19205;SDS011;59358;52.134;5.596;2024-03-07T06:18:45;233.43;;;72.47;;
19205;SDS011;59358;52.134;5.596;2024-03-07T06:21:12;215.88;;;71.95;;
19205;SDS011;59358;52.134;5.596;2024-03-07T06:23:41;231.18;;;73.70;;
19205;SDS011;59358;52.134;5.596;2024-03-07T06:26:12;243.93;;;71.88;;
19205;SDS011;59358;52.134;5.596;2024-03-07T06:28:41;233.00;;;76.88;;
19205;SDS011;59358;52.134;5.596;2024-03-07T06:31:10;240.80;;;75.70;;
19205;SDS011;59358;52.134;5.596;2024-03-07T06:33:37;232.82;;;75.07;;
19205;SDS011;59358;52.134;5.596;2024-03-07T06:36:04;241.48;;;76.13;;
19205;SDS011;59358;52.134;5.596;2024-03-07T06:38:31;234.50;;;75.60;;
19205;SDS011;59358;52.134;5.596;2024-03-07T06:40:59;243.32;;;75.82;;
19205;SDS011;59358;52.134;5.596;2024-03-07T06:43:26;233.57;;;74.28;;
19205;SDS011;59358;52.134;5.596;2024-03-07T06:45:54;231.50;;;76.40;;
19205;SDS011;59358;52.134;5.596;2024-03-07T06:48:21;223.95;;;72.05;;
19205;SDS011;59358;52.134;5.596;2024-03-07T06:50:48;224.52;;;76.30;;
19205;SDS011;59358;52.134;5.596;2024-03-07T06:53:16;223.75;;;75.75;;
19205;SDS011;59358;52.134;5.596;2024-03-07T06:55:42;230.35;;;73.85;;
19205;SDS011;59358;52.134;5.596;2024-03-07T06:58:10;225.32;;;72.05;;
19205;SDS011;59358;52.134;5.596;2024-03-07T07:00:37;217.38;;;75.05;;
19205;SDS011;59358;52.134;5.596;2024-03-07T07:03:05;228.35;;;75.70;;
19205;SDS011;59358;52.134;5.596;2024-03-07T07:05:32;234.82;;;72.47;;
19205;SDS011;59358;52.134;5.596;2024-03-07T07:07:59;210.70;;;75.45;;
19205;SDS011;59358;52.134;5.596;2024-03-07T07:10:26;220.98;;;76.40;;
19205;SDS011;59358;52.134;5.596;2024-03-07T07:12:52;206.15;;;73.95;;
19205;SDS011;59358;52.134;5.596;2024-03-07T07:15:21;209.50;;;76.78;;
19205;SDS011;59358;52.134;5.596;2024-03-07T07:17:48;197.77;;;70.20;;
19205;SDS011;59358;52.134;5.596;2024-03-07T07:20:15;219.23;;;78.85;;
19205;SDS011;59358;52.134;5.596;2024-03-07T07:22:45;201.80;;;72.22;;
19205;SDS011;59358;52.134;5.596;2024-03-07T07:25:13;212.48;;;72.32;;
19205;SDS011;59358;52.134;5.596;2024-03-07T07:27:41;209.57;;;74.65;;
19205;SDS011;59358;52.134;5.596;2024-03-07T07:30:10;206.57;;;72.90;;
19205;SDS011;59358;52.134;5.596;2024-03-07T07:32:40;196.75;;;72.65;;
19205;SDS011;59358;52.134;5.596;2024-03-07T07:35:08;189.77;;;71.50;;
19205;SDS011;59358;52.134;5.596;2024-03-07T07:37:36;173.82;;;66.78;;
19205;SDS011;59358;52.134;5.596;2024-03-07T07:40:04;189.15;;;67.82;;
19205;SDS011;59358;52.134;5.596;2024-03-07T07:42:33;183.25;;;67.53;;
19205;SDS011;59358;52.134;5.596;2024-03-07T07:45:03;172.50;;;64.82;;
19205;SDS011;59358;52.134;5.596;2024-03-07T07:47:32;177.90;;;67.28;;
19205;SDS011;59358;52.134;5.596;2024-03-07T07:50:04;162.77;;;62.72;;
19205;SDS011;59358;52.134;5.596;2024-03-07T07:52:39;162.52;;;66.18;;
19205;SDS011;59358;52.134;5.596;2024-03-07T07:55:06;157.63;;;61.92;;
19205;SDS011;59358;52.134;5.596;2024-03-07T07:57:39;157.55;;;63.78;;
19205;SDS011;59358;52.134;5.596;2024-03-07T08:00:11;146.60;;;60.42;;
19205;SDS011;59358;52.134;5.596;2024-03-07T08:02:46;142.82;;;60.15;;
19205;SDS011;59358;52.134;5.596;2024-03-07T08:05:16;139.57;;;58.95;;
19205;SDS011;59358;52.134;5.596;2024-03-07T08:07:44;133.13;;;58.67;;
19205;SDS011;59358;52.134;5.596;2024-03-07T08:10:11;126.25;;;56.53;;
19205;SDS011;59358;52.134;5.596;2024-03-07T08:12:38;124.72;;;54.85;;
19205;SDS011;59358;52.134;5.596;2024-03-07T08:15:08;117.88;;;54.47;;
19205;SDS011;59358;52.134;5.596;2024-03-07T08:17:38;113.00;;;52.38;;
19205;SDS011;59358;52.134;5.596;2024-03-07T08:20:08;94.68;;;48.63;;
19205;SDS011;59358;52.134;5.596;2024-03-07T08:22:38;99.85;;;50.25;;
19205;SDS011;59358;52.134;5.596;2024-03-07T08:25:05;97.05;;;48.30;;
19205;SDS011;59358;52.134;5.596;2024-03-07T08:27:34;88.70;;;44.58;;
19205;SDS011;59358;52.134;5.596;2024-03-07T08:30:02;79.43;;;41.85;;
19205;SDS011;59358;52.134;5.596;2024-03-07T08:32:31;72.57;;;40.60;;
19205;SDS011;59358;52.134;5.596;2024-03-07T08:34:59;71.60;;;38.80;;
19205;SDS011;59358;52.134;5.596;2024-03-07T08:37:26;66.85;;;36.42;;
19205;SDS011;59358;52.134;5.596;2024-03-07T08:39:57;62.45;;;34.35;;
19205;SDS011;59358;52.134;5.596;2024-03-07T08:42:24;58.28;;;33.92;;
19205;SDS011;59358;52.134;5.596;2024-03-07T08:44:52;50.88;;;30.77;;
19205;SDS011;59358;52.134;5.596;2024-03-07T08:47:19;47.25;;;29.38;;
19205;SDS011;59358;52.134;5.596;2024-03-07T08:49:46;47.55;;;27.70;;
19205;SDS011;59358;52.134;5.596;2024-03-07T08:52:13;43.45;;;26.02;;
19205;SDS011;59358;52.134;5.596;2024-03-07T08:54:40;47.30;;;27.05;;
19205;SDS011;59358;52.134;5.596;2024-03-07T08:57:08;48.85;;;27.30;;
19205;SDS011;59358;52.134;5.596;2024-03-07T08:59:34;46.25;;;26.20;;
19205;SDS011;59358;52.134;5.596;2024-03-07T09:02:01;38.42;;;26.08;;
19205;SDS011;59358;52.134;5.596;2024-03-07T09:04:30;37.22;;;24.23;;
19205;SDS011;59358;52.134;5.596;2024-03-07T09:06:57;36.53;;;23.58;;
19205;SDS011;59358;52.134;5.596;2024-03-07T09:09:24;33.45;;;22.50;;
19205;SDS011;59358;52.134;5.596;2024-03-07T09:11:51;34.97;;;21.50;;
19205;SDS011;59358;52.134;5.596;2024-03-07T09:14:19;38.80;;;22.95;;
19205;SDS011;59358;52.134;5.596;2024-03-07T09:16:46;30.52;;;20.20;;
19205;SDS011;59358;52.134;5.596;2024-03-07T09:19:13;41.80;;;22.50;;
19205;SDS011;59358;52.134;5.596;2024-03-07T09:21:45;34.15;;;21.25;;
19205;SDS011;59358;52.134;5.596;2024-03-07T09:24:12;34.10;;;19.92;;
19205;SDS011;59358;52.134;5.596;2024-03-07T09:26:40;39.22;;;20.10;;
19205;SDS011;59358;52.134;5.596;2024-03-07T09:29:07;31.77;;;19.77;;
19205;SDS011;59358;52.134;5.596;2024-03-07T09:31:37;32.17;;;18.23;;
19205;SDS011;59358;52.134;5.596;2024-03-07T09:34:05;29.98;;;19.08;;
19205;SDS011;59358;52.134;5.596;2024-03-07T09:36:33;37.95;;;21.38;;
19205;SDS011;59358;52.134;5.596;2024-03-07T09:39:00;25.42;;;17.45;;
19205;SDS011;59358;52.134;5.596;2024-03-07T09:41:27;28.23;;;17.02;;
19205;SDS011;59358;52.134;5.596;2024-03-07T09:43:53;26.55;;;17.15;;
19205;SDS011;59358;52.134;5.596;2024-03-07T09:46:22;26.88;;;17.88;;
19205;SDS011;59358;52.134;5.596;2024-03-07T09:48:51;25.58;;;16.98;;
19205;SDS011;59358;52.134;5.596;2024-03-07T09:51:19;26.13;;;17.38;;
19205;SDS011;59358;52.134;5.596;2024-03-07T09:53:48;35.28;;;17.70;;
19205;SDS011;59358;52.134;5.596;2024-03-07T09:56:16;29.00;;;17.48;;
19205;SDS011;59358;52.134;5.596;2024-03-07T09:58:45;31.95;;;19.67;;
19205;SDS011;59358;52.134;5.596;2024-03-07T10:01:17;28.15;;;17.50;;
19205;SDS011;59358;52.134;5.596;2024-03-07T10:03:47;31.13;;;18.02;;
19205;SDS011;59358;52.134;5.596;2024-03-07T10:06:15;28.75;;;17.60;;
19205;SDS011;59358;52.134;5.596;2024-03-07T10:08:42;28.33;;;16.73;;
19205;SDS011;59358;52.134;5.596;2024-03-07T10:11:10;27.83;;;17.67;;
19205;SDS011;59358;52.134;5.596;2024-03-07T10:13:39;33.15;;;18.15;;
19205;SDS011;59358;52.134;5.596;2024-03-07T10:16:06;27.30;;;16.40;;
19205;SDS011;59358;52.134;5.596;2024-03-07T10:18:41;26.20;;;16.40;;
19205;SDS011;59358;52.134;5.596;2024-03-07T10:21:09;26.70;;;16.15;;
19205;SDS011;59358;52.134;5.596;2024-03-07T10:23:37;28.50;;;16.67;;
19205;SDS011;59358;52.134;5.596;2024-03-07T10:26:05;29.13;;;16.58;;
19205;SDS011;59358;52.134;5.596;2024-03-07T10:28:32;29.98;;;16.08;;
19205;SDS011;59358;52.134;5.596;2024-03-07T10:30:59;25.23;;;15.95;;
19205;SDS011;59358;52.134;5.596;2024-03-07T10:33:28;29.77;;;17.83;;
19205;SDS011;59358;52.134;5.596;2024-03-07T10:35:58;25.17;;;15.45;;
19205;SDS011;59358;52.134;5.596;2024-03-07T10:38:25;34.88;;;17.17;;
19205;SDS011;59358;52.134;5.596;2024-03-07T10:40:54;24.40;;;15.63;;
19205;SDS011;59358;52.134;5.596;2024-03-07T10:43:22;26.52;;;15.90;;
19205;SDS011;59358;52.134;5.596;2024-03-07T10:45:51;33.00;;;16.02;;
19205;SDS011;59358;52.134;5.596;2024-03-07T10:48:21;23.42;;;15.82;;
19205;SDS011;59358;52.134;5.596;2024-03-07T10:50:58;28.58;;;16.27;;
19205;SDS011;59358;52.134;5.596;2024-03-07T10:53:39;26.42;;;15.98;;
19205;SDS011;59358;52.134;5.596;2024-03-07T10:56:20;28.38;;;17.42;;
19205;SDS011;59358;52.134;5.596;2024-03-07T10:58:58;31.90;;;16.13;;
19205;SDS011;59358;52.134;5.596;2024-03-07T11:01:32;27.98;;;16.33;;
19205;SDS011;59358;52.134;5.596;2024-03-07T11:04:06;26.75;;;16.55;;
19205;SDS011;59358;52.134;5.596;2024-03-07T11:06:40;25.38;;;16.48;;
19205;SDS011;59358;52.134;5.596;2024-03-07T11:09:06;28.55;;;17.05;;
19205;SDS011;59358;52.134;5.596;2024-03-07T11:11:38;25.13;;;16.23;;
19205;SDS011;59358;52.134;5.596;2024-03-07T11:14:07;30.13;;;17.83;;
19205;SDS011;59358;52.134;5.596;2024-03-07T11:16:36;27.08;;;17.20;;
19205;SDS011;59358;52.134;5.596;2024-03-07T11:19:18;31.15;;;17.63;;
19205;SDS011;59358;52.134;5.596;2024-03-07T11:21:46;33.20;;;17.85;;
19205;SDS011;59358;52.134;5.596;2024-03-07T11:24:22;27.98;;;18.08;;
19205;SDS011;59358;52.134;5.596;2024-03-07T11:26:52;27.42;;;16.17;;
19205;SDS011;59358;52.134;5.596;2024-03-07T11:32:09;28.33;;;15.77;;
19205;SDS011;59358;52.134;5.596;2024-03-07T11:34:40;31.35;;;17.65;;
19205;SDS011;59358;52.134;5.596;2024-03-07T11:37:07;29.90;;;16.00;;
19205;SDS011;59358;52.134;5.596;2024-03-07T11:39:42;23.92;;;15.88;;
19205;SDS011;59358;52.134;5.596;2024-03-07T11:42:23;27.55;;;17.45;;
19205;SDS011;59358;52.134;5.596;2024-03-07T11:44:55;29.45;;;15.52;;
19205;SDS011;59358;52.134;5.596;2024-03-07T11:47:23;26.70;;;16.45;;
19205;SDS011;59358;52.134;5.596;2024-03-07T11:49:53;27.63;;;16.35;;
19205;SDS011;59358;52.134;5.596;2024-03-07T11:52:22;26.27;;;15.60;;
19205;SDS011;59358;52.134;5.596;2024-03-07T11:54:52;30.25;;;15.85;;
19205;SDS011;59358;52.134;5.596;2024-03-07T11:57:19;22.88;;;14.70;;
19205;SDS011;59358;52.134;5.596;2024-03-07T11:59:52;29.35;;;15.43;;
19205;SDS011;59358;52.134;5.596;2024-03-07T12:02:19;22.65;;;14.52;;
19205;SDS011;59358;52.134;5.596;2024-03-07T12:04:47;24.85;;;15.18;;
19205;SDS011;59358;52.134;5.596;2024-03-07T12:07:14;25.40;;;14.88;;
19205;SDS011;59358;52.134;5.596;2024-03-07T12:09:43;27.35;;;16.75;;
19205;SDS011;59358;52.134;5.596;2024-03-07T12:12:15;32.35;;;16.00;;
19205;SDS011;59358;52.134;5.596;2024-03-07T12:14:43;27.65;;;15.73;;
19205;SDS011;59358;52.134;5.596;2024-03-07T12:17:12;25.95;;;15.75;;
19205;SDS011;59358;52.134;5.596;2024-03-07T12:19:40;28.52;;;15.68;;
19205;SDS011;59358;52.134;5.596;2024-03-07T12:22:07;25.88;;;15.75;;
19205;SDS011;59358;52.134;5.596;2024-03-07T12:24:38;24.83;;;15.38;;
19205;SDS011;59358;52.134;5.596;2024-03-07T12:27:08;27.55;;;15.73;;
19205;SDS011;59358;52.134;5.596;2024-03-07T12:29:36;24.33;;;14.93;;
19205;SDS011;59358;52.134;5.596;2024-03-07T12:32:04;26.00;;;14.13;;
19205;SDS011;59358;52.134;5.596;2024-03-07T12:34:34;25.45;;;15.32;;
19205;SDS011;59358;52.134;5.596;2024-03-07T12:37:05;26.80;;;16.40;;
19205;SDS011;59358;52.134;5.596;2024-03-07T12:39:33;24.95;;;15.75;;
19205;SDS011;59358;52.134;5.596;2024-03-07T12:42:01;25.02;;;15.63;;
19205;SDS011;59358;52.134;5.596;2024-03-07T12:44:38;26.75;;;15.80;;
19205;SDS011;59358;52.134;5.596;2024-03-07T12:47:08;25.08;;;15.60;;
19205;SDS011;59358;52.134;5.596;2024-03-07T12:49:37;25.50;;;14.02;;
19205;SDS011;59358;52.134;5.596;2024-03-07T12:52:04;21.45;;;13.85;;
19205;SDS011;59358;52.134;5.596;2024-03-07T12:54:32;26.05;;;15.18;;
19205;SDS011;59358;52.134;5.596;2024-03-07T12:57:00;21.35;;;13.43;;
19205;SDS011;59358;52.134;5.596;2024-03-07T12:59:30;22.75;;;13.80;;
19205;SDS011;59358;52.134;5.596;2024-03-07T13:01:57;29.98;;;15.30;;
19205;SDS011;59358;52.134;5.596;2024-03-07T13:04:24;29.17;;;13.43;;
19205;SDS011;59358;52.134;5.596;2024-03-07T13:06:53;28.13;;;14.52;;
19205;SDS011;59358;52.134;5.596;2024-03-07T13:09:24;26.60;;;13.75;;
19205;SDS011;59358;52.134;5.596;2024-03-07T13:11:52;39.60;;;15.60;;
19205;SDS011;59358;52.134;5.596;2024-03-07T13:14:19;28.25;;;15.70;;
19205;SDS011;59358;52.134;5.596;2024-03-07T13:16:46;22.80;;;14.60;;
19205;SDS011;59358;52.134;5.596;2024-03-07T13:19:13;20.45;;;14.02;;
19205;SDS011;59358;52.134;5.596;2024-03-07T13:21:41;32.42;;;16.27;;
19205;SDS011;59358;52.134;5.596;2024-03-07T13:24:09;22.10;;;14.10;;
19205;SDS011;59358;52.134;5.596;2024-03-07T13:26:35;22.33;;;15.15;;
19205;SDS011;59358;52.134;5.596;2024-03-07T13:29:02;27.33;;;16.88;;
19205;SDS011;59358;52.134;5.596;2024-03-07T13:31:29;22.23;;;15.20;;
19205;SDS011;59358;52.134;5.596;2024-03-07T13:33:58;27.55;;;15.10;;
19205;SDS011;59358;52.134;5.596;2024-03-07T13:36:26;21.15;;;14.35;;
19205;SDS011;59358;52.134;5.596;2024-03-07T13:38:53;25.80;;;14.48;;
19205;SDS011;59358;52.134;5.596;2024-03-07T13:41:22;21.85;;;14.13;;
19205;SDS011;59358;52.134;5.596;2024-03-07T13:43:50;24.83;;;14.90;;
19205;SDS011;59358;52.134;5.596;2024-03-07T13:46:19;22.10;;;15.68;;
19205;SDS011;59358;52.134;5.596;2024-03-07T13:48:46;37.13;;;18.88;;
19205;SDS011;59358;52.134;5.596;2024-03-07T13:51:13;28.58;;;15.90;;
19205;SDS011;59358;52.134;5.596;2024-03-07T13:53:42;23.38;;;14.90;;
19205;SDS011;59358;52.134;5.596;2024-03-07T13:59:21;18.85;;;14.43;;
19205;SDS011;59358;52.134;5.596;2024-03-07T14:02:25;20.40;;;13.75;;
19205;SDS011;59358;52.134;5.596;2024-03-07T14:08:22;25.95;;;14.40;;
19205;SDS011;59358;52.134;5.596;2024-03-07T14:11:19;23.02;;;13.77;;
19205;SDS011;59358;52.134;5.596;2024-03-07T14:14:13;21.95;;;13.23;;
19205;SDS011;59358;52.134;5.596;2024-03-07T14:20:32;19.08;;;12.35;;
19205;SDS011;59358;52.134;5.596;2024-03-07T14:23:30;18.90;;;12.40;;
19205;SDS011;59358;52.134;5.596;2024-03-07T14:26:34;19.33;;;14.20;;
19205;SDS011;59358;52.134;5.596;2024-03-07T14:29:24;26.70;;;14.55;;
19205;SDS011;59358;52.134;5.596;2024-03-07T14:32:05;22.83;;;13.88;;
19205;SDS011;59358;52.134;5.596;2024-03-07T14:34:36;21.20;;;14.15;;